createdAt,value
2019-05-29T00:00:40.941Z,57.20
2019-05-29T00:09:02.144Z,56.98
2019-05-29T00:17:23.866Z,59.18
2019-05-29T00:25:45.157Z,56.23
2019-05-29T00:34:07.255Z,56.60
2019-05-29T00:42:28.399Z,55.95
2019-05-29T00:50:50.363Z,56.53
2019-05-29T00:59:12.760Z,55.73
2019-05-29T01:07:33.288Z,55.40
2019-05-29T01:15:54.559Z,56.53
2019-05-29T01:24:16.582Z,55.50
2019-05-29T01:32:37.367Z,55.35
2019-05-29T01:40:58.681Z,55.00
2019-05-29T01:49:20.170Z,55.03
2019-05-29T01:57:42.053Z,55.20
2019-05-29T02:06:03.342Z,55.10
2019-05-29T02:14:25.201Z,55.92
2019-05-29T02:22:45.970Z,55.08
2019-05-29T02:31:07.181Z,54.70
2019-05-29T02:39:29.769Z,54.30
2019-05-29T02:47:50.119Z,56.33
2019-05-29T02:56:11.909Z,54.55
2019-05-29T03:04:33.568Z,54.65
2019-05-29T03:12:54.685Z,54.98
2019-05-29T03:21:16.132Z,55.63
2019-05-29T03:29:38.869Z,55.60
2019-05-29T03:37:59.587Z,55.73
2019-05-29T03:46:42.610Z,55.88
2019-05-29T03:54:42.577Z,54.33
2019-05-29T04:03:04.282Z,57.73
2019-05-29T04:11:28.862Z,55.28
2019-05-29T04:19:46.901Z,55.23
2019-05-29T04:28:08.437Z,55.28
2019-05-29T04:36:33.294Z,55.45
2019-05-29T04:44:51.284Z,58.80
2019-05-29T04:53:12.757Z,56.83
2019-05-29T05:01:35.288Z,56.30
2019-05-29T05:09:55.327Z,56.15
2019-05-29T05:18:16.697Z,55.58
2019-05-29T05:26:38.768Z,57.43
2019-05-29T05:34:59.733Z,58.92
2019-05-29T05:43:24.822Z,57.48
2019-05-29T05:51:44.879Z,60.20
2019-05-29T06:00:08.474Z,57.23
2019-05-29T06:08:29.653Z,56.70
2019-05-29T06:16:51.233Z,59.53
2019-05-29T06:25:12.381Z,57.85
2019-05-29T06:33:33.871Z,58.68
2019-05-29T06:41:54.987Z,58.85
2019-05-29T06:50:16.209Z,57.17
2019-05-29T06:58:38.392Z,59.63
2019-05-29T07:06:58.852Z,57.23
2019-05-29T07:15:20.149Z,59.30
2019-05-29T07:23:44.629Z,58.78
2019-05-29T07:32:02.930Z,57.75
2019-05-29T07:40:24.456Z,62.33
2019-05-29T07:48:50.059Z,60.63
2019-05-29T07:57:06.896Z,60.25
2019-05-29T08:05:28.358Z,58.75
2019-05-29T08:13:50.387Z,58.58
2019-05-29T08:22:11.105Z,63.58
2019-05-29T08:30:32.483Z,58.58
2019-05-29T08:38:53.959Z,59.13
2019-05-29T08:47:14.950Z,59.90
2019-05-29T08:55:36.521Z,59.67
2019-05-29T09:03:57.592Z,67.30
2019-05-29T09:12:18.853Z,60.80
2019-05-29T09:21:03.101Z,59.90
2019-05-29T09:29:01.471Z,59.65
2019-05-29T09:37:22.783Z,59.48
2019-05-29T09:45:44.018Z,70.42
2019-05-29T09:54:05.337Z,64.20
2019-05-29T10:02:26.323Z,60.80
2019-05-29T10:10:47.679Z,61.20
2019-05-29T10:19:09.157Z,60.95
2019-05-29T10:27:30.321Z,72.75
2019-05-29T10:35:55.603Z,60.38
2019-05-29T10:44:13.367Z,61.75
2019-05-29T10:52:33.608Z,60.92
2019-05-29T11:00:55.901Z,60.45
2019-05-29T11:09:15.875Z,72.17
2019-05-29T11:17:37.069Z,61.33
2019-05-29T11:25:58.510Z,62.00
2019-05-29T11:34:19.854Z,64.03
2019-05-29T11:42:41.265Z,68.47
2019-05-29T11:51:02.749Z,76.55
2019-05-29T11:59:23.769Z,62.95
2019-05-29T12:07:45.335Z,62.43
2019-05-29T12:16:06.387Z,63.68
2019-05-29T12:24:27.762Z,63.15
2019-05-29T12:32:48.924Z,75.90
2019-05-29T12:41:10.031Z,62.43
2019-05-29T12:49:31.129Z,61.50
2019-05-29T12:57:53.740Z,62.20
2019-05-29T13:06:13.477Z,61.33
2019-05-29T13:14:34.559Z,72.47
2019-05-29T13:22:57.650Z,65.72
2019-05-29T13:31:16.945Z,67.25
2019-05-29T13:39:38.539Z,63.87
2019-05-29T13:48:02.799Z,62.60
2019-05-29T13:56:24.607Z,73.95
2019-05-29T14:04:42.259Z,62.73
2019-05-29T14:13:05.101Z,63.92
2019-05-29T14:21:25.064Z,65.32
2019-05-29T14:29:46.231Z,68.17
2019-05-29T14:38:13.139Z,77.10
2019-05-29T14:46:28.652Z,65.10
2019-05-29T14:54:50.037Z,65.08
2019-05-29T15:03:11.919Z,66.85
2019-05-29T15:11:32.543Z,69.27
2019-05-29T15:19:53.891Z,80.72
2019-05-29T15:28:18.119Z,69.53
2019-05-29T15:36:36.796Z,70.40
2019-05-29T15:44:58.034Z,69.10
2019-05-29T15:53:19.643Z,71.47
2019-05-29T16:01:40.911Z,82.97
2019-05-29T16:10:08.528Z,68.57
2019-05-29T16:18:30.065Z,68.83
2019-05-29T16:26:50.688Z,69.20
2019-05-29T16:35:13.361Z,72.40
2019-05-29T16:43:33.738Z,86.35
2019-05-29T16:51:55.033Z,67.85
2019-05-29T17:00:19.231Z,65.25
2019-05-29T17:08:37.953Z,64.10
2019-05-29T17:16:59.748Z,65.75
2019-05-29T17:25:28.493Z,77.78
2019-05-29T17:33:43.179Z,61.98
2019-05-29T17:42:06.718Z,63.87
2019-05-29T17:50:28.194Z,64.35
2019-05-29T17:58:49.545Z,64.20
2019-05-29T18:07:11.186Z,77.70
2019-05-29T18:15:35.270Z,62.75
2019-05-29T18:23:56.962Z,63.00
2019-05-29T18:32:18.856Z,63.15
2019-05-29T18:40:40.278Z,61.65
2019-05-29T18:49:01.975Z,69.30
2019-05-29T18:57:24.906Z,61.80
2019-05-29T19:05:44.903Z,60.90
2019-05-29T19:14:06.513Z,59.77
2019-05-29T19:22:30.878Z,60.48
2019-05-29T19:30:52.100Z,68.15
2019-05-29T19:39:13.484Z,61.45
2019-05-29T19:47:35.272Z,59.05
2019-05-29T19:55:56.630Z,58.17
2019-05-29T20:04:18.379Z,58.48
2019-05-29T20:12:39.755Z,73.07
2019-05-29T20:21:01.256Z,58.33
2019-05-29T20:29:22.817Z,58.10
2019-05-29T20:37:45.016Z,56.70
2019-05-29T20:46:06.531Z,57.62
2019-05-29T20:54:31.832Z,68.25
2019-05-29T21:02:51.899Z,57.00
2019-05-29T21:11:13.458Z,55.85
2019-05-29T21:19:36.688Z,57.20
2019-05-29T21:27:56.621Z,59.42
2019-05-29T21:36:17.840Z,64.03
2019-05-29T21:44:40.480Z,56.80
2019-05-29T21:53:00.808Z,56.55
2019-05-29T22:01:27.262Z,56.13
2019-05-29T22:09:48.534Z,55.35
2019-05-29T22:18:09.967Z,56.02
2019-05-29T22:26:31.283Z,56.80
2019-05-29T22:34:53.970Z,61.75
2019-05-29T22:43:14.212Z,56.23
2019-05-29T22:51:35.609Z,55.65
2019-05-29T22:59:58.153Z,59.35
2019-05-29T23:08:18.486Z,55.65
2019-05-29T23:16:39.857Z,54.93
2019-05-29T23:25:01.451Z,54.58
2019-05-29T23:33:22.844Z,54.60
2019-05-29T23:41:44.402Z,56.60
2019-05-29T23:50:06.082Z,54.27
2019-05-29T23:58:27.409Z,55.35
